Time;durP1;ratioP1;P1;durP2;ratioP2;P2;SDS_P1;SDS_P2;PMS_P1;PMS_P2;Temp;Humidity;BMP_temperature;BMP_pressure;BME280_temperature;BME280_humidity;BME280_pressure;Samples;Min_cycle;Max_cycle;Signal;HPM_P1;HPM_P2
2022/09/15 00:00:50;;;;;;;7.03;5.38;;;;;;;;;;5052437;28;20308;-84
2022/09/15 00:03:20;;;;;;;5.40;4.90;;;;;;;;;;5052233;28;20212;-85
2022/09/15 00:05:48;;;;;;;4.90;4.50;;;;;;;;;;5052693;28;20226;-84
2022/09/15 00:08:15;;;;;;;5.38;4.88;;;;;;;;;;5052816;28;20285;-84
2022/09/15 00:10:48;;;;;;;5.53;5.03;;;;;;;;;;5052892;28;20313;-85
2022/09/15 00:13:16;;;;;;;7.25;4.95;;;;;;;;;;5053130;28;20206;-85
2022/09/15 00:15:44;;;;;;;6.30;5.35;;;;;;;;;;5053391;28;20297;-85
2022/09/15 00:18:12;;;;;;;6.88;5.63;;;;;;;;;;5052690;28;20206;-84
2022/09/15 00:20:43;;;;;;;5.97;5.30;;;;;;;;;;5053489;28;20700;-84
2022/09/15 00:23:13;;;;;;;6.57;5.20;;;;;;;;;;5053196;28;20189;-84
2022/09/15 00:25:44;;;;;;;6.15;5.55;;;;;;;;;;5052709;28;20210;-84
2022/09/15 00:28:12;;;;;;;7.93;5.68;;;;;;;;;;5052900;28;20259;-84
2022/09/15 00:30:44;;;;;;;8.10;6.80;;;;;;;;;;5052697;28;20226;-85
2022/09/15 00:33:12;;;;;;;6.45;5.78;;;;;;;;;;5052863;28;20583;-84
2022/09/15 00:35:43;;;;;;;5.93;4.85;;;;;;;;;;5053135;28;20212;-84
2022/09/15 00:38:12;;;;;;;5.90;5.28;;;;;;;;;;5052582;28;20197;-84
2022/09/15 00:40:45;;;;;;;6.30;5.70;;;;;;;;;;5054631;28;20202;-84
2022/09/15 00:43:14;;;;;;;8.88;5.65;;;;;;;;;;5057220;28;20202;-84
2022/09/15 00:45:43;;;;;;;5.93;5.32;;;;;;;;;;5056644;28;20204;-84
2022/09/15 00:48:13;;;;;;;6.63;4.97;;;;;;;;;;5056637;28;20678;-84
2022/09/15 00:50:45;;;;;;;5.05;4.10;;;;;;;;;;5056649;28;20309;-84
2022/09/15 00:53:13;;;;;;;8.23;4.55;;;;;;;;;;5056807;28;20285;-84
2022/09/15 00:55:46;;;;;;;5.72;4.72;;;;;;;;;;5056856;28;20769;-85
2022/09/15 00:58:19;;;;;;;7.43;5.43;;;;;;;;;;5056008;28;20202;-84
2022/09/15 01:00:54;;;;;;;11.82;5.28;;;;;;;;;;5056323;28;20611;-85
2022/09/15 01:03:22;;;;;;;6.18;5.60;;;;;;;;;;5055991;28;20232;-85
2022/09/15 01:05:54;;;;;;;3.92;3.63;;;;;;;;;;5054778;28;20198;-86
2022/09/15 01:08:28;;;;;;;2.80;2.53;;;;;;;;;;5054653;28;20201;-85
2022/09/15 01:10:55;;;;;;;4.40;4.00;;;;;;;;;;5054243;28;20225;-85
2022/09/15 01:13:23;;;;;;;2.95;2.72;;;;;;;;;;5054450;28;20281;-85
2022/09/15 01:16:02;;;;;;;1.80;1.70;;;;;;;;;;5054500;28;20212;-85
2022/09/15 01:18:40;;;;;;;2.25;2.05;;;;;;;;;;5054355;28;20201;-85
2022/09/15 01:21:25;;;;;;;1.90;1.80;;;;;;;;;;5054191;28;20217;-85
2022/09/15 01:24:24;;;;;;;2.78;2.58;;;;;;;;;;5054075;28;20227;-85
2022/09/15 01:27:19;;;;;;;2.65;2.30;;;;;;;;;;5054133;28;20217;-84
2022/09/15 01:30:08;;;;;;;3.40;3.10;;;;;;;;;;5054014;28;20205;-85
2022/09/15 01:33:03;;;;;;;3.25;2.95;;;;;;;;;;5054138;28;20228;-85
2022/09/15 01:35:39;;;;;;;3.20;2.90;;;;;;;;;;5054414;28;20201;-85
2022/09/15 01:38:11;;;;;;;5.07;4.63;;;;;;;;;;5053910;28;20211;-84
2022/09/15 01:40:44;;;;;;;3.90;3.50;;;;;;;;;;5054653;28;20722;-85
2022/09/15 01:43:12;;;;;;;5.63;4.78;;;;;;;;;;5054605;28;20212;-84
2022/09/15 01:45:43;;;;;;;6.00;4.78;;;;;;;;;;5054334;28;20240;-85
2022/09/15 01:48:10;;;;;;;5.55;5.05;;;;;;;;;;5054082;28;20284;-85
2022/09/15 01:50:43;;;;;;;6.53;5.93;;;;;;;;;;5054325;28;20676;-85
2022/09/15 01:53:14;;;;;;;6.60;6.00;;;;;;;;;;5054583;28;20677;-85
2022/09/15 01:55:46;;;;;;;6.82;5.80;;;;;;;;;;5054329;28;20587;-83
2022/09/15 01:58:13;;;;;;;6.47;5.75;;;;;;;;;;5053919;28;20200;-83
2022/09/15 02:00:45;;;;;;;6.63;6.03;;;;;;;;;;5053831;28;20296;-83
2022/09/15 02:03:20;;;;;;;7.05;5.75;;;;;;;;;;5054021;28;20255;-82
2022/09/15 02:05:50;;;;;;;6.20;5.60;;;;;;;;;;5054230;28;20287;-82
2022/09/15 02:08:27;;;;;;;6.55;5.95;;;;;;;;;;5054662;28;20677;-82
2022/09/15 02:11:04;;;;;;;5.75;5.13;;;;;;;;;;5054265;28;20225;-82
2022/09/15 02:13:41;;;;;;;7.40;6.50;;;;;;;;;;5054383;28;20657;-82
2022/09/15 02:16:18;;;;;;;4.45;4.05;;;;;;;;;;5054654;28;20295;-82
2022/09/15 02:19:07;;;;;;;4.32;4.03;;;;;;;;;;5054089;28;20255;-82
2022/09/15 02:21:41;;;;;;;3.92;3.53;;;;;;;;;;5054006;28;20218;-82
2022/09/15 02:24:15;;;;;;;3.03;2.75;;;;;;;;;;5054819;28;20269;-82
2022/09/15 02:26:43;;;;;;;3.50;3.20;;;;;;;;;;5054445;28;20201;-83
2022/09/15 02:29:14;;;;;;;3.60;3.30;;;;;;;;;;5054211;28;20223;-82
2022/09/15 02:31:43;;;;;;;2.80;2.60;;;;;;;;;;5053917;28;20329;-82
2022/09/15 02:34:16;;;;;;;2.60;2.40;;;;;;;;;;5053710;28;20204;-82
2022/09/15 02:36:43;;;;;;;2.70;2.50;;;;;;;;;;5053959;28;20201;-82
2022/09/15 02:39:15;;;;;;;2.58;2.38;;;;;;;;;;5054004;28;20288;-83
2022/09/15 02:41:42;;;;;;;2.58;2.28;;;;;;;;;;5053449;28;20304;-82
2022/09/15 02:44:10;;;;;;;2.28;2.10;;;;;;;;;;5053251;28;20229;-81
2022/09/15 02:46:39;;;;;;;2.08;1.98;;;;;;;;;;5053529;28;20285;-82
2022/09/15 02:49:08;;;;;;;3.33;3.03;;;;;;;;;;5053144;28;20267;-81
2022/09/15 02:51:35;;;;;;;3.72;3.40;;;;;;;;;;5052961;28;20225;-83
2022/09/15 02:54:03;;;;;;;5.90;5.30;;;;;;;;;;5053329;28;20243;-81
2022/09/15 02:56:30;;;;;;;8.60;7.70;;;;;;;;;;5052906;28;20212;-81
2022/09/15 02:58:58;;;;;;;9.20;6.97;;;;;;;;;;5052832;28;20228;-82
2022/09/15 03:01:31;;;;;;;7.30;6.60;;;;;;;;;;5052648;28;20316;-82
2022/09/15 03:03:59;;;;;;;5.57;5.07;;;;;;;;;;5053167;28;20197;-83
2022/09/15 03:06:33;;;;;;;6.20;4.60;;;;;;;;;;5052479;28;20204;-82
2022/09/15 03:09:01;;;;;;;4.57;4.18;;;;;;;;;;5053893;28;20286;-83
2022/09/15 03:11:30;;;;;;;9.30;7.35;;;;;;;;;;5053248;28;20228;-81
2022/09/15 03:13:59;;;;;;;8.80;7.90;;;;;;;;;;5052793;28;20202;-82
2022/09/15 03:16:28;;;;;;;10.02;8.68;;;;;;;;;;5052987;28;20204;-82
2022/09/15 03:18:58;;;;;;;9.98;7.50;;;;;;;;;;5052943;28;20193;-82
2022/09/15 03:21:28;;;;;;;8.20;7.35;;;;;;;;;;5053185;28;20225;-82
2022/09/15 03:23:55;;;;;;;9.73;7.68;;;;;;;;;;5052654;28;20201;-82
2022/09/15 03:26:23;;;;;;;9.07;7.72;;;;;;;;;;5052345;28;20213;-84
2022/09/15 03:28:50;;;;;;;7.38;6.68;;;;;;;;;;5052942;28;20292;-85
2022/09/15 03:31:18;;;;;;;8.55;7.57;;;;;;;;;;5052942;28;20638;-84
2022/09/15 03:33:46;;;;;;;13.07;8.05;;;;;;;;;;5052704;28;20312;-84
2022/09/15 03:36:13;;;;;;;10.95;9.10;;;;;;;;;;5052902;28;20203;-83
2022/09/15 03:38:42;;;;;;;8.60;7.70;;;;;;;;;;5052365;28;20296;-84
2022/09/15 03:41:12;;;;;;;7.85;6.90;;;;;;;;;;5052150;28;20309;-84
2022/09/15 03:43:40;;;;;;;11.40;7.30;;;;;;;;;;5052687;28;20202;-84
2022/09/15 03:46:10;;;;;;;11.00;7.07;;;;;;;;;;5051957;28;20823;-84
2022/09/15 03:48:39;;;;;;;9.77;8.23;;;;;;;;;;5052553;28;20224;-85
2022/09/15 03:51:07;;;;;;;8.95;7.10;;;;;;;;;;5052146;28;20222;-84
2022/09/15 03:53:37;;;;;;;8.80;7.50;;;;;;;;;;5052205;28;20576;-84
2022/09/15 03:56:12;;;;;;;10.25;7.15;;;;;;;;;;5052191;28;20198;-84
2022/09/15 03:58:40;;;;;;;8.50;7.47;;;;;;;;;;5052232;28;20205;-84
2022/09/15 04:01:08;;;;;;;11.45;8.43;;;;;;;;;;5051987;28;20297;-84
2022/09/15 04:03:35;;;;;;;9.68;8.68;;;;;;;;;;5051780;28;20198;-84
2022/09/15 04:06:03;;;;;;;10.25;9.18;;;;;;;;;;5052123;28;20284;-84
2022/09/15 04:08:30;;;;;;;8.77;7.88;;;;;;;;;;5051825;28;20202;-84
2022/09/15 04:10:59;;;;;;;9.68;8.68;;;;;;;;;;5052250;28;20255;-83
2022/09/15 04:13:28;;;;;;;10.48;8.85;;;;;;;;;;5052108;28;20253;-81
2022/09/15 04:16:00;;;;;;;9.60;8.60;;;;;;;;;;5054121;28;20288;-83
2022/09/15 04:18:28;;;;;;;9.52;7.97;;;;;;;;;;5056011;28;20212;-83
2022/09/15 04:20:58;;;;;;;9.57;7.93;;;;;;;;;;5056945;28;20229;-84
2022/09/15 04:23:26;;;;;;;9.82;8.05;;;;;;;;;;5056060;28;20197;-84
2022/09/15 04:25:57;;;;;;;9.40;7.70;;;;;;;;;;5055956;28;20216;-84
2022/09/15 04:28:24;;;;;;;8.77;7.95;;;;;;;;;;5056528;28;20598;-83
2022/09/15 04:30:54;;;;;;;11.82;9.50;;;;;;;;;;5055870;28;20261;-84
2022/09/15 04:33:21;;;;;;;8.80;7.82;;;;;;;;;;5055801;28;20233;-83
2022/09/15 04:35:49;;;;;;;9.98;7.95;;;;;;;;;;5056380;28;20788;-83
2022/09/15 04:38:16;;;;;;;11.45;8.20;;;;;;;;;;5055227;28;20285;-84
2022/09/15 04:40:44;;;;;;;10.40;8.65;;;;;;;;;;5055185;28;20229;-83
2022/09/15 04:43:12;;;;;;;11.10;9.27;;;;;;;;;;5055704;28;20585;-82
2022/09/15 04:45:39;;;;;;;9.93;8.25;;;;;;;;;;5060005;28;20234;-83
2022/09/15 04:48:08;;;;;;;13.38;9.32;;;;;;;;;;5055937;28;20237;-85
2022/09/15 04:50:36;;;;;;;10.23;8.43;;;;;;;;;;5056153;28;20232;-84
2022/09/15 04:53:03;;;;;;;10.68;8.30;;;;;;;;;;5056563;28;20717;-85
2022/09/15 04:55:32;;;;;;;8.65;7.55;;;;;;;;;;5057339;28;20292;-83
2022/09/15 04:58:01;;;;;;;10.60;7.70;;;;;;;;;;5056673;28;20292;-84
2022/09/15 05:00:29;;;;;;;8.25;7.32;;;;;;;;;;5056789;28;20274;-84
2022/09/15 05:02:58;;;;;;;10.15;8.60;;;;;;;;;;5056555;28;20197;-84
2022/09/15 05:05:26;;;;;;;9.68;7.63;;;;;;;;;;5057101;28;20206;-84
2022/09/15 05:07:54;;;;;;;10.38;9.30;;;;;;;;;;5057057;28;20241;-83
2022/09/15 05:10:21;;;;;;;10.93;8.85;;;;;;;;;;5057091;28;20652;-84
2022/09/15 05:12:49;;;;;;;9.98;8.98;;;;;;;;;;5057206;28;20228;-85
2022/09/15 05:15:16;;;;;;;8.52;7.00;;;;;;;;;;5056847;28;20684;-83
2022/09/15 05:17:44;;;;;;;8.88;7.75;;;;;;;;;;5056632;28;20236;-83
2022/09/15 05:20:11;;;;;;;9.65;8.02;;;;;;;;;;5056149;28;20268;-82
2022/09/15 05:22:40;;;;;;;12.27;8.75;;;;;;;;;;5054534;28;20764;-81
2022/09/15 05:25:09;;;;;;;11.00;9.38;;;;;;;;;;5054942;28;20205;-83
2022/09/15 05:27:38;;;;;;;11.75;8.75;;;;;;;;;;5054559;28;20206;-82
2022/09/15 05:30:07;;;;;;;9.55;7.97;;;;;;;;;;5054502;28;20211;-82
2022/09/15 05:32:34;;;;;;;10.75;8.82;;;;;;;;;;5054241;28;20804;-83
2022/09/15 05:35:02;;;;;;;10.43;8.25;;;;;;;;;;5054279;28;20232;-81
2022/09/15 05:37:30;;;;;;;10.38;7.30;;;;;;;;;;5049679;28;20204;-81
2022/09/15 05:39:59;;;;;;;9.48;7.28;;;;;;;;;;5050020;28;20197;-82
2022/09/15 05:42:26;;;;;;;8.07;7.28;;;;;;;;;;5053231;28;20229;-82
2022/09/15 05:44:54;;;;;;;10.10;9.05;;;;;;;;;;5053027;28;20197;-82
2022/09/15 05:47:21;;;;;;;9.45;8.52;;;;;;;;;;5051977;28;20286;-82
2022/09/15 05:49:49;;;;;;;10.18;8.30;;;;;;;;;;5053937;28;20632;-81
2022/09/15 05:52:16;;;;;;;9.25;8.35;;;;;;;;;;5054331;28;20251;-82
2022/09/15 05:54:43;;;;;;;8.65;7.82;;;;;;;;;;5053829;28;20220;-82
2022/09/15 05:57:12;;;;;;;11.25;9.10;;;;;;;;;;5053300;28;20201;-82
2022/09/15 05:59:40;;;;;;;12.43;10.20;;;;;;;;;;5053968;28;20201;-82
2022/09/15 06:02:10;;;;;;;10.13;8.98;;;;;;;;;;5053813;28;20280;-81
2022/09/15 06:04:37;;;;;;;10.13;8.95;;;;;;;;;;5054001;28;20727;-82
2022/09/15 06:07:05;;;;;;;8.23;7.28;;;;;;;;;;5053146;28;20288;-83
2022/09/15 06:09:33;;;;;;;7.13;5.75;;;;;;;;;;5054216;28;20595;-81
2022/09/15 06:12:01;;;;;;;7.15;6.55;;;;;;;;;;5053220;28;20283;-81
2022/09/15 06:14:29;;;;;;;8.60;7.60;;;;;;;;;;5053796;28;20225;-82
2022/09/15 06:16:57;;;;;;;6.47;5.88;;;;;;;;;;5053061;28;20293;-82
2022/09/15 06:19:24;;;;;;;8.63;7.80;;;;;;;;;;5053794;28;20580;-83
2022/09/15 06:21:53;;;;;;;6.82;6.13;;;;;;;;;;5053041;28;20227;-82
2022/09/15 06:24:20;;;;;;;6.35;5.75;;;;;;;;;;5053420;28;20201;-82
2022/09/15 06:26:48;;;;;;;8.32;6.47;;;;;;;;;;5052839;28;20570;-83
2022/09/15 06:29:15;;;;;;;6.90;5.90;;;;;;;;;;5053337;28;20305;-83
2022/09/15 06:31:44;;;;;;;5.35;4.85;;;;;;;;;;5052637;28;20224;-82
2022/09/15 06:34:12;;;;;;;6.18;4.82;;;;;;;;;;5052439;28;20222;-81
2022/09/15 06:36:39;;;;;;;6.28;5.68;;;;;;;;;;5066841;28;20261;-83
2022/09/15 06:39:08;;;;;;;10.52;7.78;;;;;;;;;;5051790;28;20307;-82
2022/09/15 06:41:36;;;;;;;4.60;4.10;;;;;;;;;;5053285;28;20256;-82
2022/09/15 06:44:04;;;;;;;6.93;5.22;;;;;;;;;;5053082;28;20228;-81
2022/09/15 06:46:31;;;;;;;11.93;8.10;;;;;;;;;;5052377;28;20209;-80
2022/09/15 06:49:00;;;;;;;7.03;6.32;;;;;;;;;;5052414;28;20205;-80
2022/09/15 06:51:30;;;;;;;9.43;8.13;;;;;;;;;;5053102;28;20232;-80
2022/09/15 06:53:57;;;;;;;8.13;6.20;;;;;;;;;;5053518;28;20299;-81
2022/09/15 06:56:25;;;;;;;6.80;5.90;;;;;;;;;;5053024;28;20204;-82
2022/09/15 06:58:52;;;;;;;9.57;8.57;;;;;;;;;;5053001;28;20602;-80
2022/09/15 07:01:22;;;;;;;10.82;8.77;;;;;;;;;;5052485;28;20233;-81
2022/09/15 07:03:50;;;;;;;8.23;7.43;;;;;;;;;;5052696;28;20204;-80
2022/09/15 07:06:20;;;;;;;8.55;7.72;;;;;;;;;;5052681;28;20228;-80
2022/09/15 07:08:48;;;;;;;7.57;6.82;;;;;;;;;;5052363;28;20210;-80
2022/09/15 07:11:17;;;;;;;8.38;7.57;;;;;;;;;;5052414;28;20312;-80
2022/09/15 07:13:44;;;;;;;10.60;8.15;;;;;;;;;;5052683;28;20205;-79
2022/09/15 07:16:15;;;;;;;9.02;6.95;;;;;;;;;;5051905;28;20201;-80
2022/09/15 07:18:42;;;;;;;8.35;7.57;;;;;;;;;;5052513;28;20292;-79
2022/09/15 07:21:13;;;;;;;7.75;6.97;;;;;;;;;;5052366;28;20217;-82
2022/09/15 07:23:42;;;;;;;8.48;7.63;;;;;;;;;;5052105;28;20209;-82
2022/09/15 07:26:12;;;;;;;7.05;5.93;;;;;;;;;;5051712;28;20202;-82
2022/09/15 07:28:41;;;;;;;5.13;4.53;;;;;;;;;;5051733;28;20692;-81
2022/09/15 07:31:11;;;;;;;7.35;6.70;;;;;;;;;;5052101;28;20226;-81
2022/09/15 07:33:39;;;;;;;6.53;5.88;;;;;;;;;;5051975;28;20274;-81
2022/09/15 07:36:09;;;;;;;7.05;5.00;;;;;;;;;;5051691;28;20597;-81
2022/09/15 07:38:42;;;;;;;5.45;4.88;;;;;;;;;;5051157;28;20213;-82
2022/09/15 07:41:12;;;;;;;5.75;5.15;;;;;;;;;;5051471;28;20225;-82
2022/09/15 07:43:40;;;;;;;7.53;5.30;;;;;;;;;;5051957;28;20207;-83
2022/09/15 07:46:07;;;;;;;5.97;5.38;;;;;;;;;;5051777;28;20208;-83
2022/09/15 07:48:35;;;;;;;6.28;5.68;;;;;;;;;;5051465;28;20204;-82
2022/09/15 07:51:02;;;;;;;5.13;4.10;;;;;;;;;;5056104;28;20222;-82
2022/09/15 07:53:30;;;;;;;3.80;3.50;;;;;;;;;;5055448;28;20692;-82
2022/09/15 07:55:59;;;;;;;4.85;4.35;;;;;;;;;;5055406;28;20225;-83
2022/09/15 07:58:26;;;;;;;4.50;4.07;;;;;;;;;;5055491;28;20203;-82
2022/09/15 08:00:54;;;;;;;3.95;3.65;;;;;;;;;;5055217;28;20252;-81
2022/09/15 08:03:21;;;;;;;3.85;3.47;;;;;;;;;;5054924;28;20685;-82
2022/09/15 08:05:48;;;;;;;3.55;3.25;;;;;;;;;;5055554;28;20193;-81
2022/09/15 08:08:16;;;;;;;5.97;4.57;;;;;;;;;;5054836;28;20213;-81
2022/09/15 08:10:43;;;;;;;4.40;3.75;;;;;;;;;;5055303;28;20198;-80
2022/09/15 08:13:12;;;;;;;3.50;3.20;;;;;;;;;;5055448;28;20293;-81
2022/09/15 08:15:40;;;;;;;3.13;2.67;;;;;;;;;;5054778;28;20232;-81
2022/09/15 08:18:07;;;;;;;5.07;4.30;;;;;;;;;;5055273;28;20415;-80
2022/09/15 08:20:37;;;;;;;3.17;2.88;;;;;;;;;;5055392;28;20201;-80
2022/09/15 08:23:05;;;;;;;3.40;3.10;;;;;;;;;;5055253;28;20204;-80
2022/09/15 08:25:32;;;;;;;4.15;3.40;;;;;;;;;;5054599;28;20684;-80
2022/09/15 08:28:00;;;;;;;4.65;3.92;;;;;;;;;;5054588;28;20814;-82
2022/09/15 08:30:29;;;;;;;8.77;4.55;;;;;;;;;;5054471;28;20673;-81
2022/09/15 08:32:56;;;;;;;5.78;4.60;;;;;;;;;;5055011;28;20198;-82
2022/09/15 08:35:24;;;;;;;5.57;4.95;;;;;;;;;;5054682;28;20251;-80
2022/09/15 08:37:54;;;;;;;5.47;4.97;;;;;;;;;;5054775;28;20217;-80
2022/09/15 08:40:24;;;;;;;8.93;5.95;;;;;;;;;;5054048;28;20259;-82
2022/09/15 08:42:54;;;;;;;5.55;5.05;;;;;;;;;;5055030;28;20208;-81
2022/09/15 08:45:24;;;;;;;5.20;4.57;;;;;;;;;;5055052;28;20197;-81
2022/09/15 08:47:57;;;;;;;6.03;5.40;;;;;;;;;;5054753;28;20205;-81
2022/09/15 08:50:29;;;;;;;6.43;5.70;;;;;;;;;;5054505;28;20206;-81
2022/09/15 08:53:00;;;;;;;6.25;4.95;;;;;;;;;;5054818;28;20202;-81
2022/09/15 08:55:40;;;;;;;5.97;5.03;;;;;;;;;;5054508;28;20720;-80
2022/09/15 08:58:15;;;;;;;5.90;5.32;;;;;;;;;;5054524;28;20202;-80
2022/09/15 09:00:43;;;;;;;5.93;5.25;;;;;;;;;;5053610;28;20296;-81
2022/09/15 09:03:29;;;;;;;5.70;5.13;;;;;;;;;;5054681;28;20675;-80
2022/09/15 09:06:01;;;;;;;6.63;5.65;;;;;;;;;;5055208;28;20197;-81
2022/09/15 09:09:08;;;;;;;5.45;4.97;;;;;;;;;;5055422;28;20205;-81
2022/09/15 09:12:01;;;;;;;5.53;5.00;;;;;;;;;;5050375;28;20605;-81
2022/09/15 09:14:39;;;;;;;7.15;4.97;;;;;;;;;;5055062;28;20579;-83
2022/09/15 09:17:36;;;;;;;6.85;6.25;;;;;;;;;;5056620;28;20359;-83
2022/09/15 09:20:30;;;;;;;5.75;5.25;;;;;;;;;;5057020;28;20205;-82
2022/09/15 09:22:59;;;;;;;7.35;5.63;;;;;;;;;;5056297;28;20670;-82
2022/09/15 09:25:26;;;;;;;5.85;5.25;;;;;;;;;;5058042;28;20197;-81
2022/09/15 09:27:54;;;;;;;7.05;4.82;;;;;;;;;;5057072;28;20288;-81
2022/09/15 09:30:23;;;;;;;4.45;4.05;;;;;;;;;;5057098;28;20210;-81
2022/09/15 09:32:57;;;;;;;5.63;5.05;;;;;;;;;;5058937;28;20206;-82
2022/09/15 09:35:36;;;;;;;6.05;5.22;;;;;;;;;;5058830;28;20222;-81
2022/09/15 09:38:04;;;;;;;4.93;4.43;;;;;;;;;;5058954;28;20582;-82
2022/09/15 09:40:32;;;;;;;4.30;3.90;;;;;;;;;;5057456;28;20749;-82
2022/09/15 09:43:00;;;;;;;6.30;4.75;;;;;;;;;;5055322;28;20265;-82
2022/09/15 09:45:28;;;;;;;5.03;4.20;;;;;;;;;;5055196;28;20603;-82
2022/09/15 09:48:00;;;;;;;3.70;3.40;;;;;;;;;;5054356;28;20257;-83
2022/09/15 09:50:41;;;;;;;4.25;3.78;;;;;;;;;;5057497;28;20701;-81
2022/09/15 09:53:26;;;;;;;5.10;3.03;;;;;;;;;;5057607;28;20237;-82
2022/09/15 09:55:54;;;;;;;4.28;3.88;;;;;;;;;;5057711;28;20229;-83
2022/09/15 09:58:24;;;;;;;3.47;3.17;;;;;;;;;;5053856;28;20260;-80
2022/09/15 10:00:53;;;;;;;2.60;2.38;;;;;;;;;;5057390;28;20233;-82
2022/09/15 10:03:22;;;;;;;2.33;2.17;;;;;;;;;;5057726;28;20240;-81
2022/09/15 10:06:04;;;;;;;4.25;2.50;;;;;;;;;;5056528;28;20658;-82
2022/09/15 10:08:32;;;;;;;3.50;2.90;;;;;;;;;;5055366;28;20208;-82
2022/09/15 10:11:05;;;;;;;3.53;2.90;;;;;;;;;;5057840;28;20248;-82
2022/09/15 10:13:34;;;;;;;16.42;3.65;;;;;;;;;;5055620;28;20717;-82
2022/09/15 10:16:04;;;;;;;5.65;2.45;;;;;;;;;;5056772;28;20611;-82
2022/09/15 10:18:34;;;;;;;3.70;2.50;;;;;;;;;;5057000;28;20595;-82
2022/09/15 10:21:04;;;;;;;1.95;1.85;;;;;;;;;;5057291;28;20705;-81
2022/09/15 10:23:33;;;;;;;2.67;2.45;;;;;;;;;;5057036;28;20237;-82
2022/09/15 10:26:29;;;;;;;3.40;2.05;;;;;;;;;;5056775;28;20208;-82
2022/09/15 10:29:15;;;;;;;4.07;2.22;;;;;;;;;;5056013;28;20271;-82
2022/09/15 10:31:43;;;;;;;1.27;1.17;;;;;;;;;;5054411;28;20218;-82
2022/09/15 10:34:26;;;;;;;5.63;2.13;;;;;;;;;;5056893;28;20253;-82
2022/09/15 10:37:01;;;;;;;1.55;1.45;;;;;;;;;;5055322;28;20226;-82
2022/09/15 10:39:36;;;;;;;2.25;1.50;;;;;;;;;;5056677;28;20232;-83
2022/09/15 10:42:12;;;;;;;2.65;1.50;;;;;;;;;;5054495;28;20216;-81
2022/09/15 10:44:47;;;;;;;4.43;1.85;;;;;;;;;;5054027;28;20593;-81
2022/09/15 10:47:24;;;;;;;1.25;1.15;;;;;;;;;;5055357;28;20288;-80
2022/09/15 10:50:06;;;;;;;3.53;1.25;;;;;;;;;;5053861;28;20255;-81
2022/09/15 10:52:51;;;;;;;2.10;1.55;;;;;;;;;;5056406;28;20247;-82
2022/09/15 10:55:37;;;;;;;2.10;1.90;;;;;;;;;;5056030;28;20292;-82
2022/09/15 10:58:27;;;;;;;1.38;1.25;;;;;;;;;;5053912;28;20225;-82
2022/09/15 11:01:03;;;;;;;2.40;1.42;;;;;;;;;;5054943;28;20221;-85
2022/09/15 11:03:56;;;;;;;4.05;1.65;;;;;;;;;;5055317;28;20229;-82
2022/09/15 11:06:27;;;;;;;1.85;1.52;;;;;;;;;;5055744;28;20648;-81
2022/09/15 11:09:11;;;;;;;1.40;1.30;;;;;;;;;;5034925;28;20666;-82
2022/09/15 11:12:00;;;;;;;1.67;1.58;;;;;;;;;;5035024;28;20222;-82
2022/09/15 11:14:51;;;;;;;3.50;1.38;;;;;;;;;;5033381;28;20233;-81
2022/09/15 11:17:36;;;;;;;1.30;1.20;;;;;;;;;;5033410;28;20308;-82
2022/09/15 11:20:32;;;;;;;2.63;1.40;;;;;;;;;;5033989;28;20285;-81
2022/09/15 11:23:05;;;;;;;1.40;0.90;;;;;;;;;;5033696;28;20210;-83
2022/09/15 11:25:37;;;;;;;1.77;1.50;;;;;;;;;;5039068;28;20273;-83
2022/09/15 11:28:12;;;;;;;1.80;1.00;;;;;;;;;;5054270;28;20301;-84
2022/09/15 11:30:44;;;;;;;1.20;1.10;;;;;;;;;;5053160;28;20193;-82
2022/09/15 11:33:18;;;;;;;2.42;0.90;;;;;;;;;;5053169;28;20205;-83
2022/09/15 11:35:47;;;;;;;0.70;0.70;;;;;;;;;;5053361;28;20193;-82
2022/09/15 11:38:29;;;;;;;1.23;1.08;;;;;;;;;;5053238;28;20320;-82
2022/09/15 11:41:11;;;;;;;1.25;1.15;;;;;;;;;;5054324;28;20248;-83
2022/09/15 11:43:45;;;;;;;1.35;1.00;;;;;;;;;;5057308;28;20221;-83
2022/09/15 11:46:17;;;;;;;0.88;0.52;;;;;;;;;;5057812;28;20233;-80
2022/09/15 11:48:50;;;;;;;1.42;1.00;;;;;;;;;;5053531;28;20201;-83
2022/09/15 11:51:18;;;;;;;1.00;0.80;;;;;;;;;;5054604;28;20227;-80
2022/09/15 11:53:50;;;;;;;0.77;0.77;;;;;;;;;;5051657;28;20193;-82
2022/09/15 11:56:26;;;;;;;0.80;0.70;;;;;;;;;;5052307;28;20309;-82
2022/09/15 11:59:05;;;;;;;0.50;0.50;;;;;;;;;;5053266;28;20200;-82
2022/09/15 12:01:38;;;;;;;1.25;1.05;;;;;;;;;;5052548;28;20243;-81
2022/09/15 12:04:10;;;;;;;1.38;0.70;;;;;;;;;;5051907;28;20208;-80
2022/09/15 12:06:43;;;;;;;0.70;0.70;;;;;;;;;;5050563;28;20198;-80
2022/09/15 12:09:14;;;;;;;0.63;0.63;;;;;;;;;;5052329;28;20297;-82
2022/09/15 12:11:45;;;;;;;1.75;1.00;;;;;;;;;;5052782;28;20580;-82
2022/09/15 12:14:17;;;;;;;0.63;0.60;;;;;;;;;;5053124;28;20208;-82
2022/09/15 12:16:45;;;;;;;0.60;0.60;;;;;;;;;;5052865;28;20288;-81
2022/09/15 12:19:16;;;;;;;0.85;0.80;;;;;;;;;;5052142;28;20600;-80
2022/09/15 12:21:51;;;;;;;2.08;0.90;;;;;;;;;;5052673;28;20221;-82
2022/09/15 12:24:27;;;;;;;2.05;1.60;;;;;;;;;;5052319;28;20201;-81
2022/09/15 12:26:58;;;;;;;2.28;1.00;;;;;;;;;;5052326;28;20745;-81
2022/09/15 12:29:40;;;;;;;3.92;0.95;;;;;;;;;;5052302;28;20770;-80
2022/09/15 12:32:27;;;;;;;2.00;1.30;;;;;;;;;;5052686;28;20646;-81
2022/09/15 12:35:09;;;;;;;2.38;1.13;;;;;;;;;;5051964;28;20724;-81
2022/09/15 12:37:41;;;;;;;1.98;1.20;;;;;;;;;;5054538;28;20229;-81
2022/09/15 12:40:32;;;;;;;0.88;0.52;;;;;;;;;;5055876;28;20225;-81
2022/09/15 12:43:01;;;;;;;1.33;1.02;;;;;;;;;;5056416;28;20236;-81
2022/09/15 12:45:31;;;;;;;1.90;0.90;;;;;;;;;;5055463;28;20194;-82
2022/09/15 12:48:03;;;;;;;2.97;0.75;;;;;;;;;;5055644;28;20197;-82
2022/09/15 12:50:33;;;;;;;0.68;0.68;;;;;;;;;;5055547;28;20206;-80
2022/09/15 12:53:03;;;;;;;2.30;0.70;;;;;;;;;;5055478;28;20206;-82
2022/09/15 12:55:35;;;;;;;2.22;0.70;;;;;;;;;;5055565;28;20216;-83
2022/09/15 12:58:11;;;;;;;0.70;0.70;;;;;;;;;;5055514;28;20233;-82
2022/09/15 13:00:40;;;;;;;3.13;1.10;;;;;;;;;;5055206;28;20208;-81
2022/09/15 13:03:28;;;;;;;2.05;0.93;;;;;;;;;;5055615;28;20205;-81
2022/09/15 13:06:19;;;;;;;0.90;0.90;;;;;;;;;;5056495;28;20618;-82
2022/09/15 13:09:17;;;;;;;2.25;0.95;;;;;;;;;;5056165;28;20208;-80
2022/09/15 13:11:49;;;;;;;1.83;0.93;;;;;;;;;;5054936;28;20221;-81
2022/09/15 13:14:26;;;;;;;2.10;1.40;;;;;;;;;;5055736;28;20198;-80
2022/09/15 13:16:58;;;;;;;1.25;0.80;;;;;;;;;;5054926;28;20207;-79
2022/09/15 13:19:31;;;;;;;4.68;1.10;;;;;;;;;;5055445;28;20694;-81
2022/09/15 13:22:06;;;;;;;0.80;0.80;;;;;;;;;;5055609;28;20658;-80
2022/09/15 13:24:49;;;;;;;1.08;0.75;;;;;;;;;;5055542;28;20204;-80
2022/09/15 13:27:22;;;;;;;1.33;0.70;;;;;;;;;;5036015;28;20212;-81
2022/09/15 13:29:55;;;;;;;0.75;0.75;;;;;;;;;;5035718;28;20217;-79
2022/09/15 13:32:38;;;;;;;0.90;0.77;;;;;;;;;;5040849;28;20221;-80
2022/09/15 13:35:28;;;;;;;2.42;1.13;;;;;;;;;;5055472;28;20205;-80
2022/09/15 13:38:35;;;;;;;0.90;0.90;;;;;;;;;;5053892;28;20227;-81
2022/09/15 13:41:31;;;;;;;0.73;0.70;;;;;;;;;;5054682;28;20573;-81
2022/09/15 13:44:17;;;;;;;0.80;0.80;;;;;;;;;;5054819;28;20205;-82
2022/09/15 13:46:59;;;;;;;0.77;0.55;;;;;;;;;;5054245;28;20205;-81
2022/09/15 13:49:51;;;;;;;0.55;0.55;;;;;;;;;;5054688;28;20650;-80
2022/09/15 13:52:41;;;;;;;1.00;0.77;;;;;;;;;;5053792;28;20252;-80
2022/09/15 13:55:19;;;;;;;0.98;0.50;;;;;;;;;;5054952;28;20212;-80
2022/09/15 13:57:49;;;;;;;0.90;0.90;;;;;;;;;;5054124;28;20224;-81
2022/09/15 14:00:20;;;;;;;0.60;0.60;;;;;;;;;;5053009;28;20205;-81
2022/09/15 14:02:52;;;;;;;0.85;0.82;;;;;;;;;;5054283;28;20268;-81
2022/09/15 14:05:21;;;;;;;0.40;0.40;;;;;;;;;;5053697;28;20201;-80
2022/09/15 14:07:53;;;;;;;1.55;1.45;;;;;;;;;;5053670;28;20216;-80
2022/09/15 14:10:24;;;;;;;1.08;0.70;;;;;;;;;;5053901;28;20209;-80
2022/09/15 14:12:52;;;;;;;1.48;1.00;;;;;;;;;;5053015;28;20228;-81
2022/09/15 14:15:23;;;;;;;0.60;0.60;;;;;;;;;;5053682;28;20292;-81
2022/09/15 14:17:52;;;;;;;1.38;0.93;;;;;;;;;;5053074;28;20213;-81
2022/09/15 14:20:29;;;;;;;0.77;0.70;;;;;;;;;;5054141;28;20201;-81
2022/09/15 14:22:58;;;;;;;0.85;0.52;;;;;;;;;;5053827;28;20212;-81
2022/09/15 14:25:26;;;;;;;0.80;0.70;;;;;;;;;;5053564;28;20208;-81
2022/09/15 14:27:55;;;;;;;3.08;1.75;;;;;;;;;;5053543;28;20198;-80
2022/09/15 14:30:26;;;;;;;1.90;0.85;;;;;;;;;;5054224;28;20202;-81
2022/09/15 14:32:57;;;;;;;0.68;0.68;;;;;;;;;;5053485;28;20760;-80
2022/09/15 14:35:28;;;;;;;0.85;0.85;;;;;;;;;;5053130;28;20204;-80
2022/09/15 14:37:58;;;;;;;0.80;0.77;;;;;;;;;;5053483;28;20587;-81
2022/09/15 14:40:30;;;;;;;4.55;1.75;;;;;;;;;;5053889;28;20285;-80
2022/09/15 14:42:57;;;;;;;0.75;0.75;;;;;;;;;;5053611;28;20206;-81
2022/09/15 14:45:36;;;;;;;0.90;0.85;;;;;;;;;;5053484;28;20213;-81
2022/09/15 14:48:11;;;;;;;1.30;1.20;;;;;;;;;;5053389;28;20201;-81
2022/09/15 14:50:38;;;;;;;1.20;0.75;;;;;;;;;;5053371;28;20201;-81
2022/09/15 14:53:08;;;;;;;2.08;0.88;;;;;;;;;;5052927;28;20285;-81
2022/09/15 14:55:39;;;;;;;1.85;1.08;;;;;;;;;;5053314;28;20596;-81
2022/09/15 14:58:11;;;;;;;0.65;0.52;;;;;;;;;;5052841;28;20198;-81
2022/09/15 15:00:48;;;;;;;0.70;0.70;;;;;;;;;;5052715;28;20200;-82
2022/09/15 15:03:26;;;;;;;0.63;0.63;;;;;;;;;;5053475;28;20781;-81
2022/09/15 15:05:57;;;;;;;0.90;0.70;;;;;;;;;;5052696;28;20669;-81
2022/09/15 15:08:36;;;;;;;0.88;0.50;;;;;;;;;;5052979;28;20236;-80
2022/09/15 15:11:06;;;;;;;1.23;1.00;;;;;;;;;;5053233;28;20225;-81